createdAt,value
2022-10-09T14:07:19.227Z,97775.53
2022-10-09T14:09:45.843Z,97751.38
2022-10-09T14:12:12.400Z,97773.31
2022-10-09T14:14:38.971Z,97846.19
2022-10-09T14:17:05.518Z,97836.91
2022-10-09T14:19:32.146Z,97835.56
2022-10-09T14:21:58.686Z,97839.78
2022-10-09T14:24:27.018Z,97840.72
2022-10-09T14:26:53.673Z,97842.91
2022-10-09T14:29:20.253Z,97773.66
2022-10-09T14:31:49.749Z,97829.16
2022-10-09T14:34:16.260Z,97773.69
2022-10-09T14:36:42.840Z,97729.06
2022-10-09T14:39:09.648Z,97743.44
2022-10-09T14:41:37.957Z,97736.28
2022-10-09T14:44:04.958Z,97784.53
2022-10-09T14:46:33.931Z,97827.13
2022-10-09T14:49:07.068Z,97815.25
2022-10-09T14:51:37.058Z,97821.78
2022-10-09T14:54:04.665Z,97824.78
2022-10-09T14:56:31.657Z,97813.03
2022-10-09T14:59:00.373Z,97826.28
2022-10-09T15:01:27.249Z,97825.56
2022-10-09T15:03:53.929Z,97696.44
2022-10-09T15:06:24.144Z,97814.00
2022-10-09T15:08:56.668Z,97811.09
2022-10-09T15:11:24.259Z,97750.25
2022-10-09T15:13:50.811Z,97809.19
2022-10-09T15:16:18.942Z,97718.16
2022-10-09T15:18:46.531Z,97810.19
2022-10-09T15:21:15.748Z,97711.88
2022-10-09T15:23:43.264Z,97794.59
2022-10-09T15:26:10.618Z,97709.31
2022-10-09T15:28:38.348Z,97794.03
2022-10-09T15:31:06.972Z,97790.78
2022-10-09T15:33:33.837Z,97520.97
2022-10-09T15:36:00.404Z,97678.22
2022-10-09T15:38:27.660Z,97699.00
2022-10-09T15:40:56.158Z,97743.16
2022-10-09T15:43:25.909Z,97753.72
2022-10-09T15:45:54.198Z,97641.41
2022-10-09T15:48:23.812Z,97686.88
2022-10-09T15:50:53.453Z,97786.94
2022-10-09T15:53:23.309Z,97781.38
2022-10-09T15:55:52.108Z,97757.91
2022-10-09T15:58:20.036Z,97741.44
2022-10-09T16:00:48.722Z,97780.59
2022-10-09T16:03:17.514Z,97773.03
2022-10-09T16:05:48.368Z,97777.56
2022-10-09T16:08:16.624Z,97772.69
2022-10-09T16:10:48.606Z,97677.09
2022-10-09T16:13:15.591Z,97790.47
2022-10-09T16:15:43.391Z,97767.75
2022-10-09T16:18:10.977Z,97718.06
2022-10-09T16:20:39.892Z,97732.69
2022-10-09T16:23:08.165Z,97688.03
2022-10-09T16:25:35.875Z,97763.34
2022-10-09T16:28:03.658Z,97690.28
2022-10-09T16:30:30.587Z,97695.25
2022-10-09T16:32:57.234Z,97716.59
2022-10-09T16:35:24.223Z,97769.13
2022-10-09T16:37:53.839Z,97718.69
2022-10-09T16:40:25.440Z,97755.81
2022-10-09T16:43:01.121Z,97748.31
2022-10-09T16:45:30.031Z,97748.78
2022-10-09T16:48:00.105Z,97749.84
2022-10-09T16:50:27.165Z,97761.72
2022-10-09T16:52:53.869Z,97758.13
2022-10-09T16:55:20.428Z,97759.25
2022-10-09T16:57:48.568Z,97769.50
2022-10-09T17:00:19.058Z,97664.28
2022-10-09T17:02:46.020Z,97716.41
2022-10-09T17:05:13.357Z,97770.34
2022-10-09T17:07:40.017Z,97764.63
2022-10-09T17:10:07.130Z,97759.00
2022-10-09T17:12:33.682Z,97685.66
2022-10-09T17:15:00.234Z,97762.84
2022-10-09T17:17:26.798Z,97756.41
2022-10-09T17:19:53.502Z,97761.38
2022-10-09T17:22:20.206Z,97740.63
2022-10-09T17:24:46.870Z,97719.56
2022-10-09T17:27:13.444Z,97682.25
2022-10-09T17:29:40.072Z,97752.81
2022-10-09T17:32:08.077Z,97750.69
2022-10-09T17:34:34.680Z,97755.63
2022-10-09T17:37:02.208Z,97722.38
2022-10-09T17:39:28.781Z,97749.69
2022-10-09T17:41:55.422Z,97733.22
2022-10-09T17:44:23.397Z,97596.31
2022-10-09T17:46:49.981Z,97748.03
2022-10-09T17:49:16.607Z,97747.03
2022-10-09T17:51:43.156Z,97709.16
2022-10-09T17:54:19.751Z,97749.84
2022-10-09T17:56:46.412Z,97626.03
2022-10-09T17:59:13.049Z,97746.84
2022-10-09T18:01:39.789Z,97649.03
2022-10-09T18:04:06.484Z,97748.63
2022-10-09T18:06:34.897Z,97740.41
2022-10-09T18:09:01.637Z,97713.84
2022-10-09T18:11:28.615Z,97707.38
2022-10-09T18:13:55.295Z,97713.97
2022-10-09T18:16:32.718Z,97735.03
2022-10-09T18:19:03.583Z,97747.81
2022-10-09T18:21:30.991Z,97741.41
2022-10-09T18:23:57.525Z,97504.22
2022-10-09T18:26:24.141Z,97744.16
2022-10-09T18:28:50.705Z,97628.91
2022-10-09T18:31:29.476Z,97733.13
2022-10-09T18:33:57.701Z,97672.47
2022-10-09T18:36:30.697Z,97730.66
2022-10-09T18:39:15.462Z,97723.88
2022-10-09T18:41:42.854Z,97687.31
2022-10-09T18:44:17.622Z,97666.56
2022-10-09T18:46:51.956Z,97715.78
2022-10-09T18:49:22.603Z,97718.59
2022-10-09T18:51:49.381Z,97625.22
2022-10-09T18:54:18.271Z,97719.22
2022-10-09T18:56:45.489Z,97649.47
2022-10-09T18:59:16.210Z,97656.94
2022-10-09T19:01:42.839Z,97710.69
2022-10-09T19:04:09.391Z,97709.19
2022-10-09T19:06:36.356Z,97616.47
2022-10-09T19:09:04.118Z,97672.59
2022-10-09T19:11:33.096Z,97610.88
2022-10-09T19:14:00.870Z,97725.19
2022-10-09T19:16:33.378Z,97664.97
2022-10-09T19:19:00.029Z,97623.31
2022-10-09T19:21:26.953Z,97595.81
2022-10-09T19:23:53.999Z,97599.38
2022-10-09T19:26:21.943Z,97661.41
2022-10-09T19:28:48.700Z,97707.34
2022-10-09T19:31:15.351Z,97701.28
2022-10-09T19:33:43.057Z,97710.44
2022-10-09T19:36:12.262Z,97568.50
2022-10-09T19:38:38.839Z,97709.09
2022-10-09T19:41:10.921Z,97707.47
2022-10-09T19:43:38.315Z,97691.03
2022-10-09T19:46:10.982Z,97695.31
2022-10-09T19:48:38.161Z,97599.34
2022-10-09T19:51:13.295Z,97690.88
2022-10-09T19:53:39.917Z,97652.69
2022-10-09T19:56:15.618Z,97687.13
2022-10-09T19:58:43.374Z,97688.09
2022-10-09T20:01:11.497Z,97603.16
2022-10-09T20:03:40.386Z,97662.44
2022-10-09T20:06:11.253Z,97677.59
2022-10-09T20:08:39.932Z,97688.94
2022-10-09T20:11:07.385Z,97685.47
2022-10-09T20:13:36.118Z,97681.22
2022-10-09T20:16:05.693Z,97676.94
2022-10-09T20:18:33.138Z,97683.84
2022-10-09T20:21:00.331Z,97636.91
2022-10-09T20:23:26.987Z,97562.09
2022-10-09T20:26:06.339Z,97666.72
2022-10-09T20:28:34.539Z,97673.81
2022-10-09T20:31:06.355Z,97677.56
2022-10-09T20:33:34.147Z,97678.53
2022-10-09T20:36:00.710Z,97672.63
2022-10-09T20:38:27.862Z,97673.72
2022-10-09T20:40:54.446Z,97542.16
2022-10-09T20:43:20.992Z,97678.47
2022-10-09T20:45:47.548Z,97684.03
2022-10-09T20:48:14.152Z,97657.53
2022-10-09T20:50:41.926Z,97554.44
2022-10-09T20:53:12.501Z,97512.91
2022-10-09T20:55:39.164Z,97670.69
2022-10-09T20:58:05.896Z,97512.75
2022-10-09T21:00:32.451Z,97623.25
2022-10-09T21:02:59.069Z,97660.53
2022-10-09T21:05:25.645Z,97650.78
2022-10-09T21:07:52.257Z,97551.69
2022-10-09T21:10:18.778Z,97641.44
2022-10-09T21:12:45.321Z,97643.38
2022-10-09T21:15:11.954Z,97414.72
2022-10-09T21:17:38.639Z,97660.31
2022-10-09T21:20:05.507Z,97650.78
2022-10-09T21:22:32.098Z,97650.94
2022-10-09T21:24:58.635Z,97650.41
2022-10-09T21:27:25.235Z,97530.19
2022-10-09T21:29:51.749Z,97644.66
2022-10-09T21:32:18.330Z,97509.72
2022-10-09T21:34:45.246Z,97539.56
2022-10-09T21:37:21.530Z,97579.81
2022-10-09T21:39:48.814Z,97644.91
2022-10-09T21:42:22.418Z,97641.47
2022-10-09T21:44:48.964Z,97574.78
2022-10-09T21:47:18.570Z,97553.84
2022-10-09T21:49:45.105Z,97629.97
2022-10-09T21:52:11.668Z,97491.53
2022-10-09T21:54:38.192Z,97610.47
2022-10-09T21:57:04.771Z,97583.03
2022-10-09T21:59:31.310Z,97560.50
2022-10-09T22:01:57.865Z,97534.38
2022-10-09T22:04:24.447Z,97508.72
2022-10-09T22:06:51.014Z,97620.72
2022-10-09T22:09:17.698Z,97627.31
2022-10-09T22:11:44.897Z,97623.59
2022-10-09T22:14:11.654Z,97628.69
2022-10-09T22:16:38.268Z,97500.25
2022-10-09T22:19:04.871Z,97613.38
2022-10-09T22:21:31.482Z,97622.28
2022-10-09T22:24:00.090Z,97628.03
2022-10-09T22:26:26.837Z,97427.28
2022-10-09T22:28:53.429Z,97561.59
2022-10-09T22:31:25.666Z,97491.03
2022-10-09T22:33:54.384Z,97616.94
2022-10-09T22:36:23.820Z,97608.75
2022-10-09T22:38:53.687Z,97611.91
2022-10-09T22:41:22.001Z,97627.31
2022-10-09T22:43:52.052Z,97617.66
2022-10-09T22:46:30.436Z,97471.53
2022-10-09T22:48:58.117Z,97606.00
2022-10-09T22:51:27.153Z,97605.06
2022-10-09T22:53:54.888Z,97607.50
2022-10-09T22:56:29.185Z,97602.78
2022-10-09T22:58:56.473Z,97614.91
2022-10-09T23:01:45.301Z,97608.38
2022-10-09T23:04:13.442Z,97607.53
2022-10-09T23:06:41.596Z,97608.38
2022-10-09T23:09:10.680Z,97608.03
2022-10-09T23:11:37.241Z,97605.72
2022-10-09T23:14:04.629Z,97605.72
2022-10-09T23:16:31.457Z,97607.50
2022-10-09T23:19:04.173Z,97610.97
2022-10-09T23:21:33.226Z,97610.47
2022-10-09T23:23:59.795Z,97587.56
2022-10-09T23:26:29.123Z,97526.53
2022-10-09T23:28:58.789Z,97611.31
2022-10-09T23:31:26.042Z,97547.69
2022-10-09T23:33:52.646Z,97606.44
2022-10-09T23:36:21.577Z,97607.91
2022-10-09T23:38:48.153Z,97557.25
2022-10-09T23:41:17.456Z,97544.09
2022-10-09T23:43:44.609Z,97599.06
2022-10-09T23:46:20.799Z,97599.88
2022-10-09T23:48:48.789Z,97592.81
2022-10-09T23:51:16.974Z,97582.28
2022-10-09T23:53:43.816Z,97580.63
2022-10-09T23:56:31.565Z,97589.19
2022-10-09T23:58:59.551Z,97590.03
